Time;durP1;ratioP1;P1;durP2;ratioP2;P2;SDS_P1;SDS_P2;PMS_P1;PMS_P2;Temp;Humidity;BMP_temperature;BMP_pressure;BME280_temperature;BME280_humidity;BME280_pressure;Samples;Min_cycle;Max_cycle;Signal;HPM_P1;HPM_P2
2022/01/03 00:00:56;;;;;;;5.93;5.50;;;10.30;1.00;;;;;;6335687;27;20327;-57
2022/01/03 00:03:59;;;;;;;6.77;6.07;;;10.20;1.00;;;;;;6333898;28;20620;-57
2022/01/03 00:07:03;;;;;;;6.27;5.70;;;10.30;1.00;;;;;;6333151;28;20251;-56
2022/01/03 00:10:07;;;;;;;5.77;5.27;;;10.30;1.00;;;;;;6335203;27;20318;-57
2022/01/03 00:13:10;;;;;;;6.57;6.03;;;10.40;1.00;;;;;;6325103;27;20782;-58
2022/01/03 00:16:13;;;;;;;6.10;5.60;;;10.30;1.00;;;;;;6335007;28;20311;-56
2022/01/03 00:19:16;;;;;;;6.03;5.50;;;10.30;1.00;;;;;;6343692;27;20223;-57
2022/01/03 00:22:23;;;;;;;5.93;5.43;;;10.30;1.00;;;;;;6329305;28;20236;-57
2022/01/03 00:25:27;;;;;;;5.57;5.27;;;10.20;1.00;;;;;;6335519;27;20311;-56
2022/01/03 00:28:35;;;;;;;5.97;5.47;;;10.30;1.00;;;;;;6334938;27;20236;-56
2022/01/03 00:31:39;;;;;;;6.00;5.60;;;10.30;1.00;;;;;;6330057;28;20601;-58
2022/01/03 00:34:42;;;;;;;6.33;5.50;;;10.30;1.00;;;;;;6334968;28;20236;-57
2022/01/03 00:37:48;;;;;;;6.30;5.73;;;10.40;1.00;;;;;;6333452;27;22568;-57
2022/01/03 00:40:53;;;;;;;6.17;5.80;;;10.30;1.00;;;;;;6331467;27;20339;-56
2022/01/03 00:43:56;;;;;;;9.40;5.77;;;10.20;1.50;;;;;;6334578;27;20318;-57
2022/01/03 00:46:59;;;;;;;6.07;5.67;;;10.20;2.50;;;;;;6334841;27;20243;-56
2022/01/03 00:50:04;;;;;;;6.03;5.70;;;10.20;3.10;;;;;;6329951;27;20243;-56
2022/01/03 00:53:08;;;;;;;5.60;5.10;;;10.20;2.30;;;;;;6333782;27;20634;-56
2022/01/03 00:56:15;;;;;;;5.80;5.50;;;10.30;2.20;;;;;;6340302;27;20311;-56
2022/01/03 00:59:25;;;;;;;6.33;5.73;;;10.30;1.70;;;;;;6332278;27;20251;-56
2022/01/03 01:02:34;;;;;;;5.40;5.10;;;10.30;2.90;;;;;;6328890;28;20236;-56
2022/01/03 01:05:39;;;;;;;5.00;4.80;;;10.20;4.30;;;;;;6331209;28;20236;-56
2022/01/03 01:08:45;;;;;;;5.43;5.00;;;10.20;5.50;;;;;;6326507;27;20265;-55
2022/01/03 01:11:53;;;;;;;5.33;5.03;;;10.30;4.70;;;;;;6333475;27;20243;-57
2022/01/03 01:14:55;;;;;;;5.17;4.90;;;10.20;7.30;;;;;;6332937;27;20232;-55
2022/01/03 01:17:59;;;;;;;5.93;5.43;;;10.20;9.10;;;;;;6330653;27;20336;-55
2022/01/03 01:21:04;;;;;;;5.10;4.80;;;10.20;10.70;;;;;;6330374;27;20745;-57
2022/01/03 01:24:08;;;;;;;4.97;4.77;;;10.20;12.50;;;;;;6332103;27;20345;-56
2022/01/03 01:30:33;;;;;;;4.70;4.40;;;10.00;15.70;;;;;;6330995;28;21197;-57
2022/01/03 01:33:39;;;;;;;4.93;4.73;;;10.00;16.50;;;;;;6327068;27;20236;-57
2022/01/03 01:36:51;;;;;;;5.53;5.13;;;9.90;20.10;;;;;;6332542;27;20395;-57
2022/01/03 01:39:57;;;;;;;5.13;4.67;;;9.80;20.80;;;;;;6325185;28;20236;-57
2022/01/03 01:43:02;;;;;;;4.90;4.60;;;10.00;20.80;;;;;;6332843;28;20470;-57
2022/01/03 01:46:08;;;;;;;4.80;4.37;;;10.00;19.30;;;;;;6325639;27;20594;-56
2022/01/03 01:49:15;;;;;;;4.90;4.70;;;10.00;19.30;;;;;;6333621;27;20249;-56
2022/01/03 01:52:21;;;;;;;4.97;4.70;;;10.00;18.60;;;;;;6331386;27;20304;-55
2022/01/03 01:55:25;;;;;;;4.67;4.30;;;10.00;19.20;;;;;;6331552;28;20254;-56
2022/01/03 01:58:30;;;;;;;4.80;4.40;;;9.80;21.00;;;;;;6326396;28;20231;-55
2022/01/03 02:01:43;;;;;;;5.30;4.90;;;9.80;22.30;;;;;;6332068;28;20243;-56
2022/01/03 02:05:04;;;;;;;5.30;4.90;;;9.80;22.60;;;;;;6331018;28;20243;-56
2022/01/03 02:08:15;;;;;;;4.80;4.50;;;9.80;23.50;;;;;;6331131;28;20744;-56
2022/01/03 02:11:33;;;;;;;4.90;4.60;;;9.90;22.60;;;;;;6332083;28;20738;-55
2022/01/03 02:14:37;;;;;;;4.63;4.33;;;9.80;23.20;;;;;;6330077;27;20236;-57
2022/01/03 02:17:44;;;;;;;3.90;3.70;;;9.80;24.00;;;;;;6332568;28;20239;-56
2022/01/03 02:20:48;;;;;;;3.90;3.80;;;9.80;22.10;;;;;;6326179;27;20385;-56
2022/01/03 02:23:51;;;;;;;3.70;3.60;;;9.80;22.20;;;;;;6337469;27;20532;-55
2022/01/03 02:26:54;;;;;;;4.33;4.07;;;9.70;23.10;;;;;;6334183;27;20805;-56
2022/01/03 02:29:56;;;;;;;3.73;3.63;;;9.60;24.60;;;;;;6328288;28;20296;-55
2022/01/03 02:32:59;;;;;;;3.50;3.40;;;9.60;26.30;;;;;;6332294;28;20811;-55
2022/01/03 02:36:05;;;;;;;3.87;3.67;;;9.60;25.40;;;;;;6331890;28;20510;-58
2022/01/03 02:39:08;;;;;;;3.70;3.60;;;9.60;26.10;;;;;;6326915;28;20312;-56
2022/01/03 02:42:11;;;;;;;3.97;3.83;;;9.70;25.30;;;;;;6330801;28;20239;-57
2022/01/03 02:45:17;;;;;;;4.20;3.83;;;9.60;25.50;;;;;;6331805;28;20232;-57
2022/01/03 02:48:22;;;;;;;3.60;3.40;;;9.70;25.10;;;;;;6310621;28;20336;-56
2022/01/03 02:51:26;;;;;;;4.20;3.90;;;9.60;25.10;;;;;;6303301;28;20339;-56
2022/01/03 02:54:29;;;;;;;3.60;3.40;;;9.70;24.60;;;;;;6311524;28;20612;-57
2022/01/03 02:57:34;;;;;;;3.20;3.10;;;9.60;25.30;;;;;;6335998;28;20232;-56
2022/01/03 03:00:44;;;;;;;3.53;3.23;;;9.60;24.40;;;;;;6336189;27;20315;-56
2022/01/03 03:03:50;;;;;;;3.50;3.20;;;9.60;24.30;;;;;;6330011;28;20311;-56
2022/01/03 03:06:54;;;;;;;3.10;3.10;;;9.60;23.60;;;;;;6334989;27;20280;-56
2022/01/03 03:09:58;;;;;;;3.63;3.37;;;9.60;23.10;;;;;;6333208;28;20232;-56
2022/01/03 03:13:01;;;;;;;2.90;2.90;;;9.50;23.20;;;;;;6333933;28;20285;-56
2022/01/03 03:16:04;;;;;;;3.30;3.10;;;9.50;23.70;;;;;;6336338;27;20231;-57
2022/01/03 03:19:07;;;;;;;3.10;3.00;;;9.50;21.90;;;;;;6339154;27;20334;-56
2022/01/03 03:22:11;;;;;;;3.33;3.23;;;9.50;21.30;;;;;;6334029;28;20759;-56
2022/01/03 03:25:16;;;;;;;2.70;2.70;;;9.60;20.00;;;;;;6340196;27;20372;-56
2022/01/03 03:28:19;;;;;;;2.90;2.90;;;9.60;18.50;;;;;;6336220;27;20246;-56
2022/01/03 03:31:22;;;;;;;3.00;2.90;;;9.60;17.80;;;;;;6331564;28;20228;-56
2022/01/03 03:34:25;;;;;;;3.10;3.00;;;9.60;18.00;;;;;;6336200;27;20260;-56
2022/01/03 03:37:30;;;;;;;3.07;3.07;;;9.60;19.00;;;;;;6335863;27;20232;-56
2022/01/03 03:40:33;;;;;;;3.33;2.90;;;9.60;18.10;;;;;;6331653;27;20617;-55
2022/01/03 03:43:36;;;;;;;3.57;3.43;;;9.60;19.80;;;;;;6335443;27;20262;-56
2022/01/03 03:46:39;;;;;;;2.97;2.87;;;9.60;19.80;;;;;;6333109;28;20509;-56
2022/01/03 03:49:42;;;;;;;3.50;3.20;;;9.60;19.80;;;;;;6340482;28;20232;-57
2022/01/03 03:52:47;;;;;;;3.23;3.00;;;9.60;19.30;;;;;;6333256;28;20331;-57
2022/01/03 03:55:50;;;;;;;3.30;3.20;;;9.50;19.90;;;;;;6335298;28;20315;-56
2022/01/03 03:58:52;;;;;;;3.13;3.03;;;9.50;20.30;;;;;;6331387;28;20405;-57
2022/01/03 04:01:55;;;;;;;3.40;3.20;;;9.50;20.60;;;;;;6322128;28;20720;-56
2022/01/03 04:05:00;;;;;;;3.43;3.23;;;9.50;20.40;;;;;;6334284;28;20742;-56
2022/01/03 04:08:04;;;;;;;3.47;3.40;;;9.50;20.00;;;;;;6330712;28;20243;-56
2022/01/03 04:11:07;;;;;;;3.63;3.43;;;9.50;20.00;;;;;;6327177;28;20235;-55
2022/01/03 04:14:10;;;;;;;3.50;3.23;;;9.50;21.70;;;;;;6333742;28;20304;-56
2022/01/03 04:17:12;;;;;;;3.07;3.00;;;9.40;23.50;;;;;;6335377;28;20449;-57
2022/01/03 04:20:17;;;;;;;3.40;3.20;;;9.40;22.20;;;;;;6337067;27;20224;-56
2022/01/03 04:23:21;;;;;;;3.50;3.20;;;9.40;22.80;;;;;;6331908;28;20720;-56
2022/01/03 04:26:25;;;;;;;2.90;2.90;;;9.40;23.30;;;;;;6330349;27;20280;-56
2022/01/03 04:29:29;;;;;;;3.20;2.93;;;9.50;22.40;;;;;;6332632;28;20761;-56
2022/01/03 04:32:31;;;;;;;3.23;3.10;;;9.40;21.90;;;;;;6308926;28;20256;-56
2022/01/03 04:35:34;;;;;;;2.80;2.80;;;9.40;23.10;;;;;;6329150;28;20236;-56
2022/01/03 04:38:38;;;;;;;3.07;2.63;;;9.40;22.90;;;;;;6322350;28;20686;-56
2022/01/03 04:41:41;;;;;;;2.60;2.60;;;9.40;21.20;;;;;;6322603;28;20320;-56
2022/01/03 04:44:44;;;;;;;2.40;2.30;;;9.40;20.50;;;;;;6281808;27;1179854;-56
2022/01/03 04:47:48;;;;;;;3.07;2.80;;;9.40;16.40;;;;;;6318691;28;20308;-56
2022/01/03 04:50:51;;;;;;;2.10;2.10;;;9.40;14.00;;;;;;6313240;28;20311;-56
2022/01/03 04:53:55;;;;;;;1.90;1.90;;;9.40;10.60;;;;;;6334172;28;20269;-56
2022/01/03 04:56:59;;;;;;;2.10;2.00;;;9.40;7.50;;;;;;6331930;28;20242;-56
2022/01/03 05:00:03;;;;;;;2.20;2.10;;;9.40;4.30;;;;;;6325035;28;20247;-56
2022/01/03 05:03:06;;;;;;;1.80;1.80;;;9.40;4.00;;;;;;6328896;28;20745;-56
2022/01/03 05:06:08;;;;;;;2.10;2.10;;;9.40;1.50;;;;;;6321742;28;20616;-57
2022/01/03 05:09:12;;;;;;;2.20;2.20;;;9.40;2.50;;;;;;6326149;28;20334;-56
2022/01/03 05:12:16;;;;;;;2.00;2.00;;;9.40;1.00;;;;;;6329819;28;20518;-56
2022/01/03 05:15:19;;;;;;;2.10;2.10;;;9.30;1.00;;;;;;6332662;27;20256;-56
2022/01/03 05:18:22;;;;;;;2.00;2.00;;;9.30;1.00;;;;;;6331633;28;20256;-57
2022/01/03 05:21:26;;;;;;;1.90;1.90;;;9.30;1.90;;;;;;6333484;28;20729;-56
2022/01/03 05:24:33;;;;;;;2.10;2.10;;;9.20;2.40;;;;;;6326439;27;20267;-56
2022/01/03 05:27:37;;;;;;;2.07;2.07;;;9.20;1.00;;;;;;6331285;28;20240;-56
2022/01/03 05:30:40;;;;;;;2.00;2.00;;;9.20;1.00;;;;;;6328943;28;20239;-56
2022/01/03 05:33:43;;;;;;;2.50;2.30;;;9.20;1.70;;;;;;6327989;28;20242;-57
2022/01/03 05:36:46;;;;;;;2.20;2.10;;;9.10;1.90;;;;;;6322225;28;20382;-56
2022/01/03 05:39:50;;;;;;;2.30;2.30;;;9.10;2.70;;;;;;6327750;28;20255;-56
2022/01/03 05:42:53;;;;;;;2.30;2.30;;;9.00;4.80;;;;;;6329025;28;20657;-56
2022/01/03 05:46:01;;;;;;;2.30;2.30;;;9.00;5.40;;;;;;6324063;27;20240;-56
2022/01/03 05:49:04;;;;;;;2.50;2.40;;;9.00;6.30;;;;;;6326543;27;20552;-55
2022/01/03 05:52:06;;;;;;;2.23;2.20;;;9.00;9.30;;;;;;6323500;28;20801;-57
2022/01/03 05:55:11;;;;;;;2.33;2.33;;;8.90;12.30;;;;;;6327334;27;20592;-56
2022/01/03 05:58:14;;;;;;;2.53;2.53;;;8.80;16.20;;;;;;6330938;28;20323;-56
2022/01/03 06:01:17;;;;;;;2.70;2.60;;;8.80;17.50;;;;;;6328369;28;20317;-57
2022/01/03 06:04:22;;;;;;;2.70;2.50;;;8.70;18.70;;;;;;6325547;27;20260;-58
2022/01/03 06:07:25;;;;;;;2.40;2.40;;;8.70;19.70;;;;;;6329253;28;20263;-57
2022/01/03 06:10:29;;;;;;;2.90;2.70;;;8.70;20.90;;;;;;6330507;27;20255;-56
2022/01/03 06:13:32;;;;;;;2.93;2.70;;;8.70;21.40;;;;;;6332604;27;20269;-57
2022/01/03 06:16:35;;;;;;;3.20;2.80;;;8.70;23.10;;;;;;6332839;28;20927;-56
2022/01/03 06:19:38;;;;;;;3.27;3.00;;;8.60;24.20;;;;;;6322202;27;20296;-57
2022/01/03 06:22:41;;;;;;;4.00;2.77;;;8.60;24.20;;;;;;6330502;28;20303;-57
2022/01/03 06:25:45;;;;;;;4.43;2.90;;;8.60;25.20;;;;;;6332703;28;20607;-57
2022/01/03 06:28:48;;;;;;;3.27;3.03;;;8.60;25.90;;;;;;6333129;28;20475;-56
2022/01/03 06:31:51;;;;;;;2.70;2.60;;;8.60;26.40;;;;;;6330717;28;20239;-59
2022/01/03 06:34:54;;;;;;;3.20;2.93;;;8.60;26.30;;;;;;6327315;27;20605;-57
2022/01/03 06:37:57;;;;;;;4.20;2.90;;;8.70;25.80;;;;;;6325355;28;20333;-58
2022/01/03 06:41:01;;;;;;;3.03;2.80;;;8.70;25.30;;;;;;6321797;28;20484;-58
2022/01/03 06:44:04;;;;;;;2.90;2.70;;;8.70;25.30;;;;;;6333205;28;20287;-57
2022/01/03 06:47:07;;;;;;;3.00;2.90;;;8.70;25.30;;;;;;6328092;28;20607;-58
2022/01/03 06:50:10;;;;;;;6.83;2.87;;;8.70;25.70;;;;;;6328559;28;20289;-59
2022/01/03 06:53:13;;;;;;;4.27;2.77;;;8.70;25.30;;;;;;6331736;28;20702;-58
2022/01/03 06:56:17;;;;;;;4.13;2.87;;;8.80;24.70;;;;;;6324406;28;20476;-57
2022/01/03 06:59:20;;;;;;;3.53;3.10;;;8.80;24.10;;;;;;6328262;28;20251;-56
2022/01/03 07:02:23;;;;;;;6.20;3.17;;;8.80;24.00;;;;;;6329227;28;20321;-58
2022/01/03 07:05:26;;;;;;;4.00;3.27;;;8.70;23.10;;;;;;6327230;28;20239;-59
2022/01/03 07:08:28;;;;;;;3.43;3.23;;;8.80;23.20;;;;;;6330635;28;20308;-58
2022/01/03 07:11:33;;;;;;;5.00;2.97;;;8.90;22.00;;;;;;6331014;27;20247;-58
2022/01/03 07:21:34;;;;;;;9.23;3.73;;;9.00;21.80;;;;;;6242379;28;20322;-58
2022/01/03 07:24:39;;;;;;;4.83;3.57;;;9.00;22.30;;;;;;6328742;28;20242;-58
2022/01/03 07:27:43;;;;;;;4.80;3.60;;;9.00;23.00;;;;;;6328410;28;20501;-57
2022/01/03 07:30:46;;;;;;;6.53;3.60;;;9.00;23.40;;;;;;6332332;28;20227;-58
2022/01/03 07:33:49;;;;;;;9.77;3.80;;;8.90;23.50;;;;;;6328271;28;20286;-56
2022/01/03 07:36:52;;;;;;;5.70;3.47;;;8.90;21.00;;;;;;6332815;27;20445;-57
2022/01/03 07:39:55;;;;;;;5.20;3.53;;;9.10;18.90;;;;;;6322829;28;20327;-56
2022/01/03 07:42:59;;;;;;;5.93;3.80;;;9.10;17.70;;;;;;6333580;27;20377;-57
2022/01/03 07:46:02;;;;;;;3.70;3.37;;;9.10;17.70;;;;;;6325011;28;20831;-57
2022/01/03 07:49:05;;;;;;;9.03;3.60;;;9.10;16.60;;;;;;6330843;27;20239;-57
2022/01/03 07:52:08;;;;;;;6.07;3.33;;;9.20;15.30;;;;;;6327121;27;20235;-57
2022/01/03 07:55:13;;;;;;;6.27;3.63;;;9.20;16.20;;;;;;6328189;27;20229;-56
2022/01/03 07:58:17;;;;;;;6.23;3.60;;;9.10;16.60;;;;;;6327379;27;20781;-58
2022/01/03 08:01:20;;;;;;;8.23;4.23;;;9.10;16.60;;;;;;6324647;27;20232;-56
2022/01/03 08:04:23;;;;;;;7.63;3.83;;;9.10;15.90;;;;;;6331285;28;20236;-57
2022/01/03 08:07:26;;;;;;;6.03;3.60;;;9.10;16.00;;;;;;6332481;27;20289;-57
2022/01/03 08:10:28;;;;;;;7.03;4.00;;;9.10;16.50;;;;;;6328702;27;20224;-58
2022/01/03 08:13:33;;;;;;;6.30;3.67;;;9.20;17.40;;;;;;6336135;28;20671;-57
2022/01/03 08:16:35;;;;;;;10.17;4.03;;;9.10;17.70;;;;;;6333629;28;20319;-57
2022/01/03 08:19:38;;;;;;;8.40;4.00;;;9.10;18.20;;;;;;6334091;27;20332;-58
2022/01/03 08:22:41;;;;;;;6.07;3.83;;;9.10;19.10;;;;;;6335952;27;20256;-58
2022/01/03 08:25:44;;;;;;;8.87;3.80;;;9.10;19.30;;;;;;6334413;27;20311;-57
2022/01/03 08:28:48;;;;;;;6.80;3.77;;;9.10;19.70;;;;;;6334971;27;20322;-60
2022/01/03 08:31:51;;;;;;;7.67;3.87;;;9.00;20.20;;;;;;6329325;27;20235;-56
2022/01/03 08:34:54;;;;;;;5.77;3.63;;;9.10;20.50;;;;;;6336431;27;20251;-57
2022/01/03 08:37:57;;;;;;;4.73;3.73;;;9.10;19.60;;;;;;6333262;27;20293;-57
2022/01/03 08:41:00;;;;;;;8.67;3.93;;;9.10;19.30;;;;;;6323771;28;20293;-58
2022/01/03 08:44:08;;;;;;;7.87;4.20;;;9.10;18.60;;;;;;6329679;28;20702;-56
2022/01/03 08:47:11;;;;;;;7.77;4.30;;;9.10;18.70;;;;;;6330733;27;20323;-56
2022/01/03 08:50:15;;;;;;;8.53;4.33;;;9.10;18.60;;;;;;6334988;28;20295;-56
2022/01/03 08:53:21;;;;;;;7.83;4.37;;;9.10;17.70;;;;;;6332430;28;20235;-56
2022/01/03 08:56:24;;;;;;;15.43;4.40;;;9.20;17.50;;;;;;6336331;28;20647;-56
2022/01/03 08:59:28;;;;;;;9.57;4.43;;;9.20;16.90;;;;;;6336740;27;20224;-58
2022/01/03 09:02:30;;;;;;;10.57;4.33;;;9.20;15.70;;;;;;6333980;27;20609;-57
2022/01/03 09:05:35;;;;;;;7.63;3.70;;;9.30;15.40;;;;;;6326228;28;20319;-57
2022/01/03 09:08:38;;;;;;;5.07;3.90;;;9.40;13.90;;;;;;6326099;27;20307;-57
2022/01/03 09:11:41;;;;;;;6.33;3.77;;;9.50;11.80;;;;;;6334087;27;20373;-57
2022/01/03 09:14:45;;;;;;;16.53;4.87;;;9.60;9.40;;;;;;6322828;28;20323;-57
2022/01/03 09:17:48;;;;;;;5.20;3.87;;;9.60;8.70;;;;;;6337984;27;20270;-58
2022/01/03 09:20:51;;;;;;;12.57;4.57;;;9.70;7.10;;;;;;6335292;27;20285;-58
2022/01/03 09:24:15;;;;;;;7.20;4.57;;;9.70;7.50;;;;;;6334569;27;20247;-57
2022/01/03 09:30:46;;;;;;;7.13;4.27;;;9.60;6.70;;;;;;6326768;27;20232;-56
2022/01/03 09:33:49;;;;;;;7.40;3.90;;;9.60;6.30;;;;;;6333713;28;20254;-58
2022/01/03 09:36:52;;;;;;;11.80;4.30;;;9.60;5.80;;;;;;6329627;27;20232;-57
2022/01/03 09:39:55;;;;;;;11.73;4.00;;;9.60;5.80;;;;;;6326586;27;20310;-56
2022/01/03 09:43:00;;;;;;;8.23;4.20;;;9.70;5.90;;;;;;6330440;27;20785;-61
2022/01/03 09:46:05;;;;;;;7.90;5.07;;;9.70;6.40;;;;;;6326758;28;20266;-57
2022/01/03 09:49:10;;;;;;;7.13;4.10;;;9.70;4.40;;;;;;6326195;28;20247;-56
2022/01/03 09:52:16;;;;;;;10.13;4.50;;;9.70;4.40;;;;;;6327699;28;20696;-56
2022/01/03 09:55:21;;;;;;;4.00;3.50;;;9.70;2.40;;;;;;6329829;28;20321;-56
2022/01/03 09:58:23;;;;;;;11.07;4.40;;;9.80;1.80;;;;;;6331262;28;20319;-58
2022/01/03 10:01:28;;;;;;;9.60;3.80;;;9.80;1.30;;;;;;6322704;28;20224;-57
2022/01/03 10:04:32;;;;;;;4.93;3.83;;;9.90;1.00;;;;;;6328083;27;20658;-57
2022/01/03 10:07:36;;;;;;;6.97;4.00;;;9.90;1.00;;;;;;6321515;28;20279;-57
2022/01/03 10:10:40;;;;;;;8.37;4.37;;;10.00;1.00;;;;;;6323849;28;20315;-57
2022/01/03 10:13:43;;;;;;;7.07;3.87;;;10.00;1.00;;;;;;6330928;28;20491;-58
2022/01/03 10:16:49;;;;;;;7.00;4.30;;;10.00;1.00;;;;;;6325294;28;20236;-58
2022/01/03 10:20:00;;;;;;;13.13;4.53;;;10.00;1.00;;;;;;6326563;28;20240;-58
2022/01/03 10:23:10;;;;;;;8.77;4.60;;;9.90;1.00;;;;;;6330099;28;20354;-57
2022/01/03 10:26:18;;;;;;;9.73;4.50;;;10.00;1.00;;;;;;6326897;27;20256;-57
2022/01/03 10:29:23;;;;;;;5.67;4.10;;;10.10;1.00;;;;;;6301470;28;20228;-58
2022/01/03 10:32:29;;;;;;;11.70;4.40;;;10.10;1.00;;;;;;6301781;28;20360;-58
2022/01/03 10:35:40;;;;;;;8.23;5.00;;;10.10;1.00;;;;;;6304567;28;20260;-58
2022/01/03 10:38:45;;;;;;;9.03;4.67;;;10.10;1.00;;;;;;6296452;28;20241;-57
2022/01/03 10:41:50;;;;;;;11.93;5.23;;;10.10;1.00;;;;;;6301461;28;20607;-56
2022/01/03 10:44:53;;;;;;;13.27;5.00;;;10.20;1.00;;;;;;6329351;28;20357;-58
2022/01/03 10:47:57;;;;;;;11.20;5.23;;;10.40;1.00;;;;;;6330394;28;20240;-57
2022/01/03 10:51:02;;;;;;;10.70;5.07;;;10.60;1.00;;;;;;6330194;28;20282;-57
2022/01/03 10:54:09;;;;;;;14.13;5.03;;;10.60;1.00;;;;;;6329121;28;20235;-57
2022/01/03 10:57:12;;;;;;;12.33;5.10;;;10.70;1.00;;;;;;6330563;28;20930;-56
2022/01/03 11:00:16;;;;;;;10.30;5.13;;;10.80;1.00;;;;;;6329748;28;20544;-57
2022/01/03 11:03:27;;;;;;;7.27;5.47;;;10.70;1.00;;;;;;6323498;28;20231;-57
2022/01/03 11:07:00;;;;;;;9.33;5.60;;;10.70;1.00;;;;;;6325320;28;20228;-57
2022/01/03 11:13:38;;;;;;;11.20;6.00;;;10.60;1.00;;;;;;6329767;28;20577;-57
2022/01/03 11:16:42;;;;;;;13.37;5.60;;;10.60;1.00;;;;;;6334536;27;20246;-57
2022/01/03 11:19:46;;;;;;;11.60;5.57;;;10.60;1.00;;;;;;6334983;28;20714;-57
2022/01/03 11:22:50;;;;;;;11.40;5.77;;;10.70;1.00;;;;;;6326082;27;20292;-57
2022/01/03 11:25:54;;;;;;;8.57;5.23;;;10.60;1.00;;;;;;6333501;28;20240;-56
2022/01/03 11:28:57;;;;;;;11.80;5.53;;;10.60;1.00;;;;;;6333315;27;20232;-57
2022/01/03 11:32:00;;;;;;;13.63;5.53;;;10.50;1.00;;;;;;6334317;27;20232;-55
2022/01/03 11:35:06;;;;;;;10.37;5.73;;;10.50;1.00;;;;;;6330631;28;20262;-56
2022/01/03 11:38:09;;;;;;;7.00;5.43;;;10.50;1.00;;;;;;6326573;27;20445;-57
2022/01/03 11:41:13;;;;;;;12.97;5.83;;;10.50;1.00;;;;;;6327639;28;20652;-57
2022/01/03 11:44:16;;;;;;;12.27;6.57;;;10.60;1.00;;;;;;6326530;27;20314;-56
2022/01/03 11:47:19;;;;;;;9.53;5.87;;;10.50;1.00;;;;;;6336507;27;20834;-58
2022/01/03 11:50:24;;;;;;;12.63;6.50;;;10.60;1.00;;;;;;6335355;27;20236;-56
2022/01/03 11:53:27;;;;;;;11.93;5.77;;;10.70;1.00;;;;;;6337056;28;20236;-56
2022/01/03 11:56:31;;;;;;;10.63;5.50;;;10.80;1.00;;;;;;6333009;27;20726;-56
2022/01/03 12:03:37;;;;;;;13.50;6.20;;;10.80;1.00;;;;;;6334895;27;20401;-58
2022/01/03 12:06:34;;;;;;;13.50;6.10;;;10.80;1.00;;;;;;6329635;28;20272;-57
2022/01/03 12:09:39;;;;;;;15.13;5.97;;;10.80;1.00;;;;;;6330029;27;20237;-57
2022/01/03 12:12:43;;;;;;;12.70;5.93;;;10.70;1.00;;;;;;6337810;27;20936;-57
2022/01/03 12:15:46;;;;;;;13.30;6.37;;;10.70;1.00;;;;;;6323924;28;20603;-57
2022/01/03 12:19:00;;;;;;;11.13;5.80;;;10.70;1.00;;;;;;6335832;27;20678;-57
2022/01/03 12:22:11;;;;;;;12.80;5.87;;;10.80;1.00;;;;;;6334298;27;20239;-56
2022/01/03 12:25:25;;;;;;;10.93;5.37;;;10.80;1.00;;;;;;6331947;28;20234;-58
2022/01/03 12:28:28;;;;;;;10.20;5.70;;;10.80;1.00;;;;;;6334557;28;20285;-58
2022/01/03 12:32:04;;;;;;;10.93;6.03;;;10.90;1.00;;;;;;6333673;28;20471;-58
2022/01/03 12:35:24;;;;;;;11.77;5.20;;;10.90;1.00;;;;;;6327075;27;20239;-58
2022/01/03 12:38:31;;;;;;;14.60;5.20;;;10.90;1.00;;;;;;6305678;28;20547;-58
2022/01/03 12:41:43;;;;;;;8.47;5.60;;;10.90;1.00;;;;;;6308746;28;20665;-57
2022/01/03 12:44:50;;;;;;;11.30;5.37;;;10.90;1.00;;;;;;6331222;27;20235;-57
2022/01/03 12:47:53;;;;;;;13.77;5.83;;;10.80;1.00;;;;;;6335027;27;20232;-56
2022/01/03 12:51:12;;;;;;;16.40;6.23;;;10.90;1.00;;;;;;6335197;27;20315;-63
2022/01/03 12:54:39;;;;;;;11.60;5.60;;;10.80;1.00;;;;;;6328724;28;20636;-57
2022/01/03 12:57:42;;;;;;;7.63;4.97;;;10.80;1.00;;;;;;6334700;27;20912;-57
2022/01/03 13:00:47;;;;;;;10.93;5.20;;;10.80;1.00;;;;;;6328375;28;20296;-57
2022/01/03 13:03:51;;;;;;;14.70;5.73;;;10.80;1.00;;;;;;6327955;27;20255;-56
2022/01/03 13:07:04;;;;;;;8.80;5.00;;;10.80;1.00;;;;;;6329666;28;20311;-57
2022/01/03 13:10:08;;;;;;;10.70;5.10;;;10.90;1.00;;;;;;6319495;28;20309;-57
2022/01/03 13:13:27;;;;;;;11.83;5.80;;;10.90;1.00;;;;;;6326093;28;20231;-57
2022/01/03 13:16:32;;;;;;;14.53;5.70;;;10.90;1.00;;;;;;6332565;27;20313;-58
2022/01/03 13:19:36;;;;;;;10.43;5.30;;;10.80;1.00;;;;;;6312193;27;20228;-58
2022/01/03 13:22:40;;;;;;;10.57;4.67;;;10.80;1.00;;;;;;6306452;28;20423;-58
2022/01/03 13:25:44;;;;;;;5.33;4.80;;;10.90;1.00;;;;;;6303518;28;20370;-58
2022/01/03 13:28:48;;;;;;;12.03;5.43;;;10.80;1.00;;;;;;6308521;28;20325;-58
2022/01/03 13:31:52;;;;;;;11.27;5.20;;;10.80;1.00;;;;;;6308380;28;20648;-58
2022/01/03 13:34:56;;;;;;;13.90;5.13;;;10.80;1.00;;;;;;6304856;28;20245;-57
2022/01/03 13:37:59;;;;;;;11.40;5.10;;;10.90;1.00;;;;;;6329462;27;20313;-58
2022/01/03 13:41:13;;;;;;;7.47;4.40;;;11.00;1.00;;;;;;6326441;27;20235;-58
2022/01/03 13:44:40;;;;;;;6.70;4.37;;;11.00;1.00;;;;;;6333242;28;20303;-57
2022/01/03 13:51:09;;;;;;;9.10;4.30;;;11.20;1.00;;;;;;6323455;27;20255;-57
2022/01/03 13:54:23;;;;;;;10.70;4.90;;;11.10;1.00;;;;;;6333722;27;20224;-57
2022/01/03 13:57:27;;;;;;;11.00;4.37;;;11.10;1.00;;;;;;6333601;27;20785;-57
2022/01/03 14:00:31;;;;;;;9.03;4.60;;;11.00;1.00;;;;;;6333596;27;20302;-57
2022/01/03 14:03:36;;;;;;;9.50;4.90;;;11.00;1.00;;;;;;6334417;28;20281;-57
2022/01/03 14:06:38;;;;;;;8.70;4.67;;;11.00;1.00;;;;;;6325901;27;20327;-57
2022/01/03 14:09:43;;;;;;;12.07;4.93;;;10.90;1.00;;;;;;6332702;28;20372;-57
2022/01/03 14:12:52;;;;;;;11.30;4.83;;;11.00;1.00;;;;;;6327302;28;20606;-57
2022/01/03 14:16:00;;;;;;;8.70;4.20;;;10.90;1.00;;;;;;6332876;27;20304;-57
2022/01/03 14:19:11;;;;;;;6.70;3.80;;;11.00;1.00;;;;;;6333833;27;20703;-58
2022/01/03 14:22:16;;;;;;;11.47;5.00;;;10.90;1.00;;;;;;6334026;28;20289;-58
2022/01/03 14:25:24;;;;;;;8.43;4.97;;;10.90;1.00;;;;;;6333594;28;20252;-58
2022/01/03 14:28:30;;;;;;;9.30;4.50;;;10.90;1.00;;;;;;6332785;28;20376;-58
2022/01/03 14:31:43;;;;;;;9.83;4.60;;;11.00;1.00;;;;;;6325946;27;20323;-57
2022/01/03 14:34:51;;;;;;;9.17;4.43;;;11.00;1.00;;;;;;6333149;28;20462;-58
2022/01/03 14:37:59;;;;;;;9.27;4.63;;;11.00;1.00;;;;;;6328055;28;20372;-58
2022/01/03 14:41:02;;;;;;;8.30;4.53;;;11.00;1.00;;;;;;6322480;27;20622;-57
2022/01/03 14:44:09;;;;;;;6.93;4.83;;;11.00;1.00;;;;;;6328905;28;20590;-57
2022/01/03 14:47:13;;;;;;;4.60;4.17;;;11.00;1.00;;;;;;6332316;28;20311;-56
2022/01/03 14:50:15;;;;;;;7.17;4.43;;;11.00;1.00;;;;;;6327720;28;20274;-56
2022/01/03 14:53:27;;;;;;;7.33;4.10;;;11.00;1.00;;;;;;6309344;28;20281;-62
2022/01/03 14:56:29;;;;;;;8.30;4.43;;;11.00;1.00;;;;;;6310703;28;20229;-57
2022/01/03 14:59:33;;;;;;;10.33;4.40;;;10.90;1.00;;;;;;6313302;28;20479;-57
2022/01/03 15:02:38;;;;;;;4.47;3.73;;;11.00;1.00;;;;;;6312470;28;20266;-57
2022/01/03 15:05:46;;;;;;;7.73;4.20;;;10.90;1.00;;;;;;6301981;28;20581;-57
2022/01/03 15:08:49;;;;;;;5.33;4.93;;;10.90;1.00;;;;;;6311641;28;20744;-57
2022/01/03 15:11:55;;;;;;;5.30;3.60;;;10.90;1.00;;;;;;6308310;28;20346;-57
2022/01/03 15:14:59;;;;;;;5.70;3.87;;;10.80;1.00;;;;;;6303243;28;20236;-57
2022/01/03 15:18:02;;;;;;;5.87;3.80;;;10.70;1.00;;;;;;6312290;28;20751;-57
2022/01/03 15:21:05;;;;;;;7.10;4.20;;;10.70;1.00;;;;;;6311917;28;20224;-58
2022/01/03 15:24:08;;;;;;;5.50;3.43;;;10.60;1.00;;;;;;6308864;28;20285;-57
2022/01/03 15:27:14;;;;;;;8.70;4.20;;;10.60;1.00;;;;;;6308102;28;20256;-57
2022/01/03 15:30:22;;;;;;;3.73;3.43;;;10.60;1.00;;;;;;6335829;27;20230;-57
2022/01/03 15:33:26;;;;;;;6.03;3.67;;;10.50;1.00;;;;;;6335789;28;20746;-57
2022/01/03 15:36:29;;;;;;;8.27;3.90;;;10.60;1.00;;;;;;6331393;27;20326;-57
2022/01/03 15:39:31;;;;;;;4.53;3.60;;;10.50;1.00;;;;;;6334292;28;20310;-56
2022/01/03 15:42:35;;;;;;;6.87;3.77;;;10.50;1.00;;;;;;6325773;28;20319;-57
2022/01/03 15:45:40;;;;;;;4.37;3.57;;;10.40;1.00;;;;;;6330313;27;20240;-57
2022/01/03 15:48:43;;;;;;;4.27;3.87;;;10.40;1.00;;;;;;6333587;28;20244;-57
2022/01/03 15:51:45;;;;;;;5.27;4.00;;;10.30;1.00;;;;;;6333167;27;20293;-58
2022/01/03 15:54:48;;;;;;;5.73;3.77;;;10.30;1.00;;;;;;6335460;28;20231;-57
2022/01/03 15:57:51;;;;;;;4.03;3.73;;;10.20;1.00;;;;;;6330076;28;20235;-57
2022/01/03 16:00:55;;;;;;;8.17;4.23;;;10.20;1.00;;;;;;6336580;27;20240;-57
2022/01/03 16:03:58;;;;;;;9.67;4.20;;;10.10;1.00;;;;;;6320661;27;20244;-57
2022/01/03 16:07:01;;;;;;;4.30;3.90;;;10.00;1.00;;;;;;6328872;28;20229;-56
2022/01/03 16:10:04;;;;;;;3.67;3.47;;;10.00;1.00;;;;;;6336409;27;21102;-56
2022/01/03 16:13:07;;;;;;;5.47;4.30;;;9.90;1.00;;;;;;6336561;28;20282;-57
2022/01/03 16:16:12;;;;;;;7.00;4.00;;;9.90;1.00;;;;;;6334016;27;20318;-59
2022/01/03 16:19:15;;;;;;;4.27;3.70;;;9.80;1.00;;;;;;6332852;28;20261;-56
2022/01/03 16:22:18;;;;;;;4.10;3.70;;;9.80;1.00;;;;;;6335743;28;20281;-57
2022/01/03 16:25:22;;;;;;;3.83;3.60;;;9.80;1.00;;;;;;6333319;28;20240;-58
2022/01/03 16:28:24;;;;;;;4.90;4.27;;;9.80;1.00;;;;;;6330102;28;20327;-57
2022/01/03 16:31:28;;;;;;;5.13;4.30;;;9.80;1.00;;;;;;6335033;27;20320;-58
2022/01/03 16:34:31;;;;;;;4.27;3.90;;;9.70;1.00;;;;;;6334529;27;20983;-55
2022/01/03 16:37:37;;;;;;;8.03;4.47;;;9.80;1.00;;;;;;6330878;27;20239;-57